createdAt,value
2023-04-11T00:00:11.408Z,18.25
2023-04-11T00:02:41.569Z,27.25
2023-04-11T00:05:30.600Z,29.50
2023-04-11T00:08:16.942Z,32.75
2023-04-11T00:10:57.278Z,25.00
2023-04-11T00:13:53.845Z,16.00
2023-04-11T00:16:47.240Z,15.00
2023-04-11T00:19:55.288Z,29.50
2023-04-11T00:22:43.382Z,31.75
2023-04-11T00:25:10.401Z,28.00
2023-04-11T00:27:37.401Z,25.50
2023-04-11T00:30:07.137Z,15.00
2023-04-11T00:32:34.183Z,20.00
2023-04-11T00:35:01.128Z,27.75
2023-04-11T00:37:28.041Z,27.25
2023-04-11T00:39:56.167Z,23.00
2023-04-11T00:42:23.345Z,20.75
2023-04-11T00:44:50.552Z,16.00
2023-04-11T00:47:17.458Z,10.25
2023-04-11T00:49:44.669Z,15.00
2023-04-11T00:52:13.039Z,10.25
2023-04-11T00:54:40.654Z,27.25
2023-04-11T00:57:08.581Z,47.67
2023-04-11T00:59:35.801Z,55.67
2023-04-11T01:02:02.760Z,40.00
2023-04-11T01:04:30.149Z,32.00
2023-04-11T01:07:19.423Z,23.00
2023-04-11T01:10:14.149Z,27.00
2023-04-11T01:13:02.360Z,19.50
2023-04-11T01:15:49.764Z,28.50
2023-04-11T01:18:36.711Z,32.75
2023-04-11T01:21:23.302Z,30.75
2023-04-11T01:24:03.919Z,52.33
2023-04-11T01:26:31.227Z,50.67
2023-04-11T01:28:58.266Z,42.33
2023-04-11T01:31:25.229Z,41.67
2023-04-11T01:33:52.128Z,39.67
2023-04-11T01:36:19.380Z,39.00
2023-04-11T01:38:46.342Z,48.67
2023-04-11T01:41:16.582Z,39.40
2023-04-11T01:43:44.482Z,49.00
2023-04-11T01:46:11.836Z,32.67
2023-04-11T01:48:39.288Z,39.67
2023-04-11T01:51:07.719Z,29.25
2023-04-11T01:53:34.667Z,37.25
2023-04-11T01:56:01.663Z,41.67
2023-04-11T01:58:28.581Z,50.33
2023-04-11T02:00:55.571Z,29.75
2023-04-11T02:03:23.164Z,24.75
2023-04-11T02:05:50.311Z,23.25
2023-04-11T02:08:17.250Z,22.00
2023-04-11T02:10:44.193Z,19.25
2023-04-11T02:13:11.150Z,37.50
2023-04-11T02:15:38.174Z,32.50
2023-04-11T02:18:07.286Z,33.50
2023-04-11T02:20:34.190Z,37.75
2023-04-11T02:23:04.842Z,20.00
2023-04-11T02:25:31.761Z,27.25
2023-04-11T02:27:58.662Z,31.75
2023-04-11T02:30:25.823Z,35.75
2023-04-11T02:32:53.157Z,33.00
2023-04-11T02:35:20.236Z,42.00
2023-04-11T02:37:47.139Z,34.00
2023-04-11T02:40:14.080Z,33.75
2023-04-11T02:42:43.430Z,39.00
2023-04-11T02:45:11.932Z,30.67
2023-04-11T02:47:39.957Z,37.50
2023-04-11T02:50:07.585Z,41.50
2023-04-11T02:52:34.643Z,37.33
2023-04-11T02:55:01.741Z,39.33
2023-04-11T02:57:28.688Z,41.50
2023-04-11T02:59:55.548Z,39.33
2023-04-11T03:02:23.877Z,32.25
2023-04-11T03:04:51.519Z,28.00
2023-04-11T03:07:18.417Z,25.00
2023-04-11T03:09:45.369Z,20.25
2023-04-11T03:12:12.340Z,29.25
2023-04-11T03:14:39.217Z,35.25
2023-04-11T03:17:06.355Z,36.75
2023-04-11T03:19:33.284Z,35.00
2023-04-11T03:22:01.850Z,37.50
2023-04-11T03:24:28.756Z,29.25
2023-04-11T03:26:56.222Z,23.50
2023-04-11T03:29:23.393Z,16.75
2023-04-11T03:31:51.073Z,18.25
2023-04-11T03:34:18.388Z,18.25
2023-04-11T03:36:45.304Z,28.75
2023-04-11T03:39:12.219Z,26.50
2023-04-11T03:41:39.259Z,39.00
2023-04-11T03:44:06.228Z,35.67
2023-04-11T03:46:33.190Z,35.00
2023-04-11T03:49:00.140Z,34.00
2023-04-11T03:51:27.370Z,30.00
2023-04-11T03:53:54.386Z,29.00
2023-04-11T03:56:21.711Z,27.00
2023-04-11T03:58:48.607Z,31.67
2023-04-11T04:01:15.554Z,23.25
2023-04-11T04:03:42.848Z,23.50
2023-04-11T04:06:10.207Z,32.33
2023-04-11T04:08:37.076Z,33.00
2023-04-11T04:11:04.094Z,33.00
2023-04-11T04:13:31.168Z,40.67
2023-04-11T04:15:58.631Z,30.00
2023-04-11T04:18:25.750Z,23.25
2023-04-11T04:20:52.865Z,18.00
2023-04-11T04:23:19.765Z,19.00
2023-04-11T04:25:51.470Z,25.67
2023-04-11T04:28:22.723Z,32.75
2023-04-11T04:30:50.440Z,34.67
2023-04-11T04:33:18.929Z,20.00
2023-04-11T04:35:45.903Z,36.33
2023-04-11T04:38:18.140Z,50.00
2023-04-11T04:40:45.284Z,42.67
2023-04-11T04:43:18.915Z,62.67
2023-04-11T04:45:46.039Z,48.67
2023-04-11T04:48:17.510Z,39.67
2023-04-11T04:50:45.916Z,46.67
2023-04-11T04:53:12.934Z,27.00
2023-04-11T04:55:39.879Z,32.00
2023-04-11T04:58:06.792Z,34.67
2023-04-11T05:00:33.849Z,30.00
2023-04-11T05:03:00.939Z,33.25
2023-04-11T05:05:27.881Z,46.00
2023-04-11T05:07:54.781Z,45.33
2023-04-11T05:10:21.712Z,43.00
2023-04-11T05:12:48.627Z,37.00
2023-04-11T05:15:15.697Z,28.25
2023-04-11T05:17:43.142Z,33.50
2023-04-11T05:20:10.743Z,29.00
2023-04-11T05:22:38.283Z,19.25
2023-04-11T05:25:06.056Z,29.75
2023-04-11T05:27:32.928Z,17.50
2023-04-11T05:30:01.469Z,21.75
2023-04-11T05:32:28.505Z,32.25
2023-04-11T05:34:59.053Z,31.75
2023-04-11T05:37:26.494Z,30.50
2023-04-11T05:39:53.492Z,32.00
2023-04-11T05:42:20.470Z,30.75
2023-04-11T05:44:47.397Z,55.25
2023-04-11T05:47:14.358Z,37.25
2023-04-11T05:49:41.381Z,32.50
2023-04-11T05:52:08.364Z,34.00
2023-04-11T05:54:37.086Z,37.75
2023-04-11T05:57:04.512Z,25.75
2023-04-11T05:59:32.156Z,21.25
2023-04-11T06:01:59.631Z,22.75
2023-04-11T06:04:26.951Z,23.75
2023-04-11T06:06:54.336Z,27.75
2023-04-11T06:09:21.375Z,26.25
2023-04-11T06:11:48.252Z,23.25
2023-04-11T06:14:15.286Z,22.75
2023-04-11T06:16:42.774Z,21.00
2023-04-11T06:19:09.738Z,19.00
2023-04-11T06:21:36.625Z,29.75
2023-04-11T06:24:08.444Z,24.25
2023-04-11T06:26:35.427Z,23.75
2023-04-11T06:29:06.739Z,30.50
2023-04-11T06:31:34.427Z,30.75
2023-04-11T06:34:02.275Z,26.00
2023-04-11T06:36:30.505Z,28.00
2023-04-11T06:38:57.492Z,26.75
2023-04-11T06:41:24.581Z,19.50
2023-04-11T06:43:51.583Z,17.25
2023-04-11T06:46:18.622Z,12.50
2023-04-11T06:48:45.657Z,7.00
2023-04-11T06:51:12.653Z,14.50
2023-04-11T06:53:39.581Z,14.75
2023-04-11T06:56:07.135Z,13.50
2023-04-11T06:58:34.025Z,17.25
2023-04-11T07:01:02.166Z,18.50
2023-04-11T07:03:31.240Z,17.50
2023-04-11T07:05:58.522Z,15.00
2023-04-11T07:08:25.558Z,15.00
2023-04-11T07:10:52.671Z,24.25
2023-04-11T07:13:21.526Z,26.50
2023-04-11T07:15:50.687Z,14.25
2023-04-11T07:18:17.772Z,17.00
2023-04-11T07:20:44.817Z,16.00
2023-04-11T07:23:11.851Z,15.50
2023-04-11T07:25:39.603Z,9.25
2023-04-11T07:28:09.533Z,11.00
2023-04-11T07:30:36.688Z,12.50
2023-04-11T07:33:04.429Z,7.75
2023-04-11T07:35:33.875Z,10.75
2023-04-11T07:38:01.768Z,8.00
2023-04-11T07:40:28.995Z,8.25
2023-04-11T07:42:55.944Z,7.50
2023-04-11T07:45:23.061Z,15.00
2023-04-11T07:47:50.055Z,15.25
2023-04-11T07:50:17.000Z,11.00
2023-04-11T07:52:43.962Z,8.00
2023-04-11T07:55:11.293Z,10.25
2023-04-11T07:57:38.271Z,9.25
2023-04-11T08:00:05.749Z,8.00
2023-04-11T08:02:33.405Z,7.50
2023-04-11T08:05:00.699Z,7.25
2023-04-11T08:07:28.122Z,7.75
2023-04-11T08:09:55.111Z,7.50
2023-04-11T08:12:22.324Z,8.25
2023-04-11T08:14:49.257Z,9.50
2023-04-11T08:17:27.187Z,8.25
2023-04-11T08:19:57.921Z,9.25
2023-04-11T08:22:24.874Z,9.25
2023-04-11T08:24:52.443Z,8.00
2023-04-11T08:27:19.340Z,12.75
2023-04-11T08:29:46.205Z,10.75
2023-04-11T08:32:13.126Z,5.50
2023-04-11T08:34:40.036Z,5.00
2023-04-11T08:37:08.371Z,7.00
2023-04-11T08:39:35.239Z,5.00
2023-04-11T08:42:02.527Z,5.00
2023-04-11T08:44:29.545Z,7.00
2023-04-11T08:46:56.467Z,6.00
2023-04-11T08:49:23.424Z,4.00
2023-04-11T08:51:54.257Z,5.00
2023-04-11T08:54:21.432Z,2.50
2023-04-11T08:56:48.334Z,3.00
2023-04-11T08:59:15.236Z,2.50
2023-04-11T09:01:42.858Z,3.00
2023-04-11T09:04:11.670Z,2.67
2023-04-11T09:06:40.483Z,5.00
2023-04-11T09:09:08.435Z,2.00
2023-04-11T09:11:56.345Z,2.33
2023-04-11T09:14:27.272Z,1.00
2023-04-11T09:16:57.006Z,4.67
2023-04-11T09:19:29.464Z,3.00
2023-04-11T09:22:01.588Z,4.00
2023-04-11T09:24:33.935Z,3.00
2023-04-11T09:27:28.156Z,5.00
2023-04-11T09:29:55.082Z,5.00
2023-04-11T09:32:35.307Z,9.33
2023-04-11T09:35:12.451Z,7.00
2023-04-11T09:37:50.598Z,6.00
2023-04-11T09:40:20.356Z,4.67
2023-04-11T09:42:48.863Z,4.67
2023-04-11T09:45:15.810Z,3.00
2023-04-11T09:47:44.586Z,4.00
2023-04-11T09:50:12.961Z,3.00
2023-04-11T09:52:43.816Z,4.00
2023-04-11T09:55:21.520Z,2.00
2023-04-11T09:57:50.226Z,1.00
2023-04-11T10:00:22.608Z,3.33
2023-04-11T10:02:55.016Z,1.00
2023-04-11T10:05:27.246Z,1.33
2023-04-11T10:08:02.712Z,2.00
2023-04-11T10:10:30.352Z,2.00
2023-04-11T10:12:57.270Z,4.00
2023-04-11T10:15:24.329Z,3.67
2023-04-11T10:18:11.883Z,3.67
2023-04-11T10:20:47.260Z,7.33
2023-04-11T10:23:15.138Z,6.33
2023-04-11T10:25:51.197Z,3.00
2023-04-11T10:28:40.916Z,4.00
2023-04-11T10:31:15.929Z,3.33
2023-04-11T10:34:14.169Z,1.00
2023-04-11T10:37:08.896Z,2.33
2023-04-11T10:39:53.686Z,2.00
2023-04-11T10:42:57.659Z,2.00
2023-04-11T10:45:27.447Z,4.00
2023-04-11T10:47:57.580Z,4.00
2023-04-11T10:50:27.338Z,3.33
2023-04-11T10:52:58.995Z,3.33
2023-04-11T10:55:27.695Z,3.00
2023-04-11T10:58:14.265Z,3.33
2023-04-11T11:00:48.316Z,6.00
2023-04-11T11:03:23.483Z,5.00
2023-04-11T11:06:03.916Z,3.67
2023-04-11T11:08:33.929Z,4.00
2023-04-11T11:11:09.898Z,7.67
2023-04-11T11:13:40.379Z,6.00
2023-04-11T11:16:14.816Z,4.33
2023-04-11T11:18:45.450Z,7.67
2023-04-11T11:21:17.016Z,7.00
2023-04-11T11:23:55.662Z,9.00
2023-04-11T11:26:23.186Z,6.67
2023-04-11T11:28:50.151Z,6.67
2023-04-11T11:31:17.292Z,5.67
2023-04-11T11:33:44.289Z,6.00
2023-04-11T11:36:11.981Z,4.00
2023-04-11T11:38:39.397Z,6.00
2023-04-11T11:41:06.995Z,6.00
2023-04-11T11:43:37.216Z,8.33
2023-04-11T11:46:10.233Z,5.33
2023-04-11T11:48:37.460Z,5.67
2023-04-11T11:51:04.726Z,7.67
2023-04-11T11:53:31.661Z,6.00
2023-04-11T11:55:59.610Z,9.33
2023-04-11T11:58:26.729Z,6.00
2023-04-11T12:00:54.557Z,5.00
2023-04-11T12:03:24.737Z,12.00
2023-04-11T12:05:56.309Z,14.00
2023-04-11T12:08:25.225Z,10.33
2023-04-11T12:10:52.731Z,14.67
2023-04-11T12:13:20.927Z,12.67
2023-04-11T12:16:01.747Z,9.67
2023-04-11T12:18:29.109Z,13.75
2023-04-11T12:20:56.299Z,15.50
2023-04-11T12:23:23.495Z,8.67
2023-04-11T12:25:50.834Z,8.67
2023-04-11T12:28:17.777Z,7.00
2023-04-11T12:30:44.756Z,5.00
2023-04-11T12:33:11.752Z,6.67
2023-04-11T12:35:38.732Z,5.33
2023-04-11T12:38:06.868Z,6.00
2023-04-11T12:40:33.937Z,12.67
2023-04-11T12:43:01.182Z,7.00
2023-04-11T12:45:28.167Z,8.00
2023-04-11T12:47:55.252Z,11.00
2023-04-11T12:50:24.275Z,10.67
2023-04-11T12:52:51.808Z,6.67
2023-04-11T12:55:18.903Z,4.67
2023-04-11T12:57:46.189Z,5.00
2023-04-11T13:00:14.044Z,7.00
2023-04-11T13:02:44.623Z,7.67
2023-04-11T13:05:15.567Z,7.00
2023-04-11T13:07:45.417Z,3.33
2023-04-11T13:10:14.310Z,6.00
2023-04-11T13:12:45.371Z,5.67
2023-04-11T13:15:14.497Z,4.00
2023-04-11T13:17:41.600Z,4.00
2023-04-11T13:20:10.798Z,5.00
2023-04-11T13:22:38.831Z,3.00
2023-04-11T13:25:07.110Z,10.67
2023-04-11T13:27:35.161Z,9.00
2023-04-11T13:30:03.850Z,7.00
2023-04-11T13:32:31.425Z,5.00
2023-04-11T13:34:58.577Z,5.00
2023-04-11T13:37:25.444Z,3.67
2023-04-11T13:39:52.356Z,4.00
2023-04-11T13:42:19.265Z,11.67
2023-04-11T13:44:46.194Z,10.33
2023-04-11T13:47:13.153Z,9.00
2023-04-11T13:49:40.025Z,9.00
2023-04-11T13:52:06.998Z,6.67
2023-04-11T13:54:33.913Z,7.33
2023-04-11T13:57:01.274Z,5.00
2023-04-11T13:59:28.327Z,4.00
2023-04-11T14:01:55.260Z,6.67
2023-04-11T14:04:22.737Z,4.67
2023-04-11T14:06:49.810Z,5.00
2023-04-11T14:09:16.772Z,3.33
2023-04-11T14:11:43.819Z,4.00
2023-04-11T14:14:10.887Z,4.33
2023-04-11T14:16:37.836Z,2.00
2023-04-11T14:19:04.791Z,3.33
2023-04-11T14:21:32.032Z,3.33
2023-04-11T14:23:59.425Z,3.00
2023-04-11T14:26:26.858Z,3.00
2023-04-11T14:28:54.063Z,4.00
2023-04-11T14:31:21.048Z,5.00
2023-04-11T14:33:48.024Z,18.25
2023-04-11T14:36:15.250Z,19.25
2023-04-11T14:38:42.336Z,13.00
2023-04-11T14:41:10.630Z,15.50
2023-04-11T14:43:37.735Z,16.25
2023-04-11T14:46:06.000Z,24.50
2023-04-11T14:48:32.952Z,12.50
2023-04-11T14:51:03.287Z,16.50
2023-04-11T14:53:30.203Z,16.00
2023-04-11T14:55:57.097Z,14.75
2023-04-11T14:58:24.084Z,14.25
2023-04-11T15:00:51.726Z,15.50
2023-04-11T15:03:18.789Z,18.00
2023-04-11T15:05:45.844Z,11.50
2023-04-11T15:08:12.791Z,15.00
2023-04-11T15:10:39.703Z,10.50
2023-04-11T15:13:09.157Z,16.00
2023-04-11T15:15:37.079Z,7.00
2023-04-11T15:18:22.183Z,10.00
2023-04-11T15:20:49.898Z,9.25
2023-04-11T15:23:18.210Z,14.75
2023-04-11T15:25:46.734Z,9.00
2023-04-11T15:28:13.696Z,15.50
2023-04-11T15:30:52.047Z,10.75
2023-04-11T15:33:24.489Z,12.00
2023-04-11T15:35:54.038Z,11.00
2023-04-11T15:38:22.057Z,14.00
2023-04-11T15:40:56.800Z,6.00
2023-04-11T15:43:24.429Z,14.00
2023-04-11T15:45:55.022Z,17.25
2023-04-11T15:48:21.958Z,17.50
2023-04-11T15:50:49.015Z,13.25
2023-04-11T15:53:16.193Z,11.25
2023-04-11T15:55:43.869Z,14.00
2023-04-11T15:58:10.968Z,15.00
2023-04-11T16:00:39.018Z,11.75
2023-04-11T16:03:06.444Z,7.25
2023-04-11T16:05:33.894Z,13.00
2023-04-11T16:08:00.923Z,13.75
2023-04-11T16:10:28.126Z,11.00
2023-04-11T16:12:55.070Z,8.25
2023-04-11T16:15:22.081Z,9.25
2023-04-11T16:17:49.769Z,10.75
2023-04-11T16:20:57.035Z,11.00
2023-04-11T16:23:24.810Z,11.25
2023-04-11T16:25:52.028Z,12.00
2023-04-11T16:28:18.992Z,11.00
2023-04-11T16:30:45.993Z,1.25
2023-04-11T16:33:13.210Z,11.75
2023-04-11T16:35:40.106Z,12.75
2023-04-11T16:38:07.306Z,12.50
2023-04-11T16:40:35.216Z,11.50
2023-04-11T16:43:02.222Z,11.75
2023-04-11T16:45:29.392Z,12.25
2023-04-11T16:47:56.430Z,9.75
2023-04-11T16:50:23.672Z,11.00
2023-04-11T16:52:50.597Z,12.75
2023-04-11T16:55:18.245Z,9.25
2023-04-11T16:57:45.133Z,14.00
2023-04-11T17:00:16.414Z,12.25
2023-04-11T17:02:43.683Z,28.25
2023-04-11T17:05:10.875Z,33.00
2023-04-11T17:07:38.006Z,30.25
2023-04-11T17:10:05.803Z,28.75
2023-04-11T17:12:32.777Z,23.75
2023-04-11T17:15:02.890Z,26.75
2023-04-11T17:17:29.885Z,20.25
2023-04-11T17:19:57.257Z,28.50
2023-04-11T17:22:24.117Z,20.00
2023-04-11T17:24:51.190Z,24.25
2023-04-11T17:27:18.074Z,30.50
2023-04-11T17:29:45.016Z,34.00
2023-04-11T17:32:12.236Z,37.75
2023-04-11T17:34:39.182Z,16.00
2023-04-11T17:37:06.780Z,25.50
2023-04-11T17:39:33.691Z,23.50
2023-04-11T17:42:01.892Z,26.50
2023-04-11T17:44:28.798Z,33.25
2023-04-11T17:46:55.950Z,28.00
2023-04-11T17:49:25.091Z,32.50
2023-04-11T17:52:10.280Z,32.75
2023-04-11T17:54:37.899Z,27.50
2023-04-11T17:57:04.841Z,21.50
2023-04-11T17:59:33.616Z,18.25
2023-04-11T18:02:01.173Z,19.50
2023-04-11T18:04:28.207Z,20.50
2023-04-11T18:06:56.486Z,9.00
2023-04-11T18:09:26.869Z,10.25
2023-04-11T18:11:53.903Z,9.50
2023-04-11T18:14:20.861Z,9.00
2023-04-11T18:16:47.804Z,4.00
2023-04-11T18:19:14.966Z,5.25
2023-04-11T18:21:41.875Z,7.50
2023-04-11T18:24:09.479Z,6.25
2023-04-11T18:26:36.462Z,7.00
2023-04-11T18:29:04.233Z,5.00
2023-04-11T18:31:35.312Z,8.00
2023-04-11T18:34:03.375Z,7.75
2023-04-11T18:36:31.080Z,8.25
2023-04-11T18:38:58.699Z,9.00
2023-04-11T18:41:25.793Z,10.00
2023-04-11T18:43:52.771Z,11.50
2023-04-11T18:46:19.722Z,14.00
2023-04-11T18:48:46.688Z,14.00
2023-04-11T18:51:13.654Z,12.50
2023-04-11T18:53:41.163Z,14.75
2023-04-11T18:56:08.356Z,14.25
2023-04-11T18:58:39.986Z,11.75
2023-04-11T19:01:15.548Z,14.00
2023-04-11T19:03:44.715Z,14.00
2023-04-11T19:06:11.867Z,12.75
2023-04-11T19:08:53.851Z,15.25
2023-04-11T19:11:20.771Z,12.00
2023-04-11T19:13:48.274Z,15.00
2023-04-11T19:16:15.428Z,13.00
2023-04-11T19:18:42.383Z,13.50
2023-04-11T19:21:09.299Z,14.00
2023-04-11T19:23:36.235Z,8.25
2023-04-11T19:26:03.269Z,16.25
2023-04-11T19:28:30.262Z,14.25
2023-04-11T19:30:57.216Z,12.75
2023-04-11T19:33:26.211Z,10.00
2023-04-11T19:35:54.517Z,15.75
2023-04-11T19:38:22.023Z,14.00
2023-04-11T19:40:49.015Z,11.25
2023-04-11T19:43:15.979Z,15.75
2023-04-11T19:45:44.334Z,19.50
2023-04-11T19:48:11.939Z,18.00
2023-04-11T19:50:38.879Z,18.75
2023-04-11T19:53:05.840Z,17.50
2023-04-11T19:55:32.798Z,14.00
2023-04-11T19:57:59.759Z,11.50
2023-04-11T20:00:28.910Z,14.50
2023-04-11T20:02:55.875Z,13.75
2023-04-11T20:05:24.027Z,18.75
2023-04-11T20:07:51.058Z,17.25
2023-04-11T20:10:18.069Z,14.25
2023-04-11T20:12:44.985Z,22.00
2023-04-11T20:15:12.184Z,17.25
2023-04-11T20:17:39.212Z,16.75
2023-04-11T20:20:08.869Z,25.75
2023-04-11T20:22:38.566Z,28.75
2023-04-11T20:25:11.946Z,23.25
2023-04-11T20:27:39.737Z,25.25
2023-04-11T20:30:09.853Z,21.75
2023-04-11T20:32:37.633Z,21.00
2023-04-11T20:35:05.391Z,22.75
2023-04-11T20:37:34.654Z,28.50
2023-04-11T20:40:02.493Z,32.00
2023-04-11T20:42:31.897Z,31.75
2023-04-11T20:45:07.068Z,39.75
2023-04-11T20:47:34.294Z,38.00
2023-04-11T20:50:04.260Z,38.50
2023-04-11T20:52:32.926Z,45.75
2023-04-11T20:55:00.515Z,44.75
2023-04-11T20:57:30.168Z,43.25
2023-04-11T20:59:58.253Z,46.75
2023-04-11T21:02:26.415Z,40.25
2023-04-11T21:04:54.472Z,47.00
2023-04-11T21:07:21.704Z,37.50
2023-04-11T21:09:49.716Z,38.00
2023-04-11T21:12:16.639Z,39.25
2023-04-11T21:14:43.589Z,37.75
2023-04-11T21:17:10.790Z,45.00
2023-04-11T21:19:38.199Z,33.25
2023-04-11T21:22:05.814Z,34.50
2023-04-11T21:24:34.432Z,44.75
2023-04-11T21:27:02.207Z,38.50
2023-04-11T21:29:29.574Z,44.75
2023-04-11T21:31:56.545Z,35.75
2023-04-11T21:34:23.524Z,40.50
2023-04-11T21:36:50.743Z,38.25
2023-04-11T21:39:17.684Z,29.50
2023-04-11T21:41:44.654Z,36.25
2023-04-11T21:44:13.467Z,37.00
2023-04-11T21:46:40.818Z,29.50
2023-04-11T21:49:07.828Z,35.75
2023-04-11T21:51:34.820Z,36.75
2023-04-11T21:54:04.623Z,36.50
2023-04-11T21:56:31.553Z,31.75
2023-04-11T21:58:58.475Z,33.25
2023-04-11T22:01:25.439Z,39.00
2023-04-11T22:03:52.586Z,29.75
2023-04-11T22:06:19.732Z,35.25
2023-04-11T22:08:50.713Z,31.25
2023-04-11T22:11:18.362Z,30.00
2023-04-11T22:13:46.889Z,27.25
2023-04-11T22:16:14.456Z,27.25
2023-04-11T22:18:47.490Z,23.50
2023-04-11T22:21:21.760Z,24.75
2023-04-11T22:23:56.228Z,22.75
2023-04-11T22:26:34.269Z,21.00
2023-04-11T22:29:06.026Z,28.25
2023-04-11T22:31:38.610Z,28.25
2023-04-11T22:34:10.342Z,24.00
2023-04-11T22:36:37.461Z,24.00
2023-04-11T22:39:08.567Z,26.25
2023-04-11T22:41:38.876Z,22.00
2023-04-11T22:44:10.878Z,21.00
2023-04-11T22:46:39.157Z,39.50
2023-04-11T22:49:06.852Z,42.50
2023-04-11T22:51:33.776Z,29.50
2023-04-11T22:54:01.361Z,37.25
2023-04-11T22:56:28.369Z,36.25
2023-04-11T22:58:55.602Z,36.75
2023-04-11T23:01:22.731Z,37.75
2023-04-11T23:03:49.973Z,31.50
2023-04-11T23:06:17.540Z,27.00
2023-04-11T23:08:44.449Z,32.75
2023-04-11T23:11:11.397Z,37.00
2023-04-11T23:13:38.365Z,26.00
2023-04-11T23:16:06.283Z,31.00
2023-04-11T23:18:33.204Z,30.00
2023-04-11T23:21:00.143Z,35.00
2023-04-11T23:23:28.076Z,38.25
2023-04-11T23:25:54.985Z,36.50
2023-04-11T23:28:21.899Z,36.25
2023-04-11T23:30:49.020Z,35.50
2023-04-11T23:33:16.645Z,41.75
2023-04-11T23:35:43.630Z,34.25
2023-04-11T23:38:10.797Z,27.75
2023-04-11T23:40:38.575Z,25.75
2023-04-11T23:43:05.559Z,24.25
2023-04-11T23:45:33.356Z,25.00
2023-04-11T23:48:00.373Z,28.00
2023-04-11T23:50:27.662Z,32.25
2023-04-11T23:52:55.126Z,29.25
2023-04-11T23:55:22.186Z,24.00
2023-04-11T23:57:49.851Z,24.00
